• Join FlightAware (Why Join?)
  • Login
  • US Flag 
10:02PM EDT


 

Airport Tracker/Info


-or-


 

Live Flight TrackerFlight Track Log ✈ SWA3313 ✈ 31-May-2013 ✈ KBWI - KCLT

Flight Track Log - Related Links

Times and Time Zones

All times are in EDT time to prevent confusion due to time zone crossing. See the SWA3313 flight status page for this flight to view local times or setup timezone preferences in your user account.

Time Position Orientation Groundspeed Altitude Reporting Facility
EDT Latitude Longitude Course Direction KTS MPH feet Rate Location/Type
07:59PM 39.1833 -76.7000 270° West 158 182 1,600  Level Potomac TRACON
08:00PM 39.1833 -76.7833 270° West 212 244 3,100 2,160 Climbing Potomac TRACON
08:01PM 39.2000 -76.8667 284° West 259 298 6,000 3,300 Climbing Potomac TRACON
08:02PM 39.2167 -76.9667 282° West 277 319 9,700 3,000 Climbing Potomac TRACON
08:03PM 39.1667 -77.0500 232° Southwest 319 367 12,100 2,880 Climbing Potomac TRACON
08:04PM 39.1000 -77.1167 218° Southwest 341 392 15,500 3,120 Climbing Potomac TRACON
08:05PM 39.0167 -77.1833 212° Southwest 362 417 18,400 2,220 Climbing Potomac TRACON
08:08PM 38.8061 -77.3925 218° Southwest 403 464 23,200 1,980 Climbing Washington Center
08:09PM 38.7258 -77.4703 217° Southwest 403 464 25,100 1,920 Climbing Washington Center
08:10PM 38.6325 -77.5636 218° Southwest 416 479 27,000 1,200 Climbing Washington Center
08:11PM 38.5472 -77.6728 225° Southwest 430 495 27,600 1,200 Climbing Washington Center
08:12PM 38.4597 -77.7819 224° Southwest 430 495 29,500 1,200 Climbing Washington Center
08:13PM 38.3703 -77.8931 224° Southwest 443 510 30,000 780 Climbing Washington Center
08:14PM 38.2803 -78.0067 225° Southwest 449 517 31,100 1,380 Climbing Washington Center
08:15PM 38.1906 -78.1147 223° Southwest 449 517 32,900 1,380 Climbing Washington Center
08:16PM 38.0983 -78.2303 225° Southwest 449 517 34,000 540 Climbing Washington Center
08:17PM 37.9956 -78.3481 222° Southwest 454 522 34,000 300 Level Washington Center
08:18PM 37.8975 -78.4469 219° Southwest 454 522 34,600 1,140 Climbing Washington Center
08:19PM 37.7969 -78.5458 218° Southwest 460 529 36,300 1,560 Climbing Washington Center
08:20PM 37.7006 -78.6444 219° Southwest 460 529 37,800 1,380 Climbing Washington Center
08:21PM 37.6128 -78.7300 218° Southwest 455 524 39,200 900 Climbing Washington Center
08:22PM 37.5164 -78.8281 219° Southwest 455 524 39,700 360 Climbing Washington Center
08:23PM 37.4158 -78.9258 218° Southwest 455 524 40,000 120 Climbing Washington Center
08:24PM 37.3150 -79.0233 218° Southwest 455 524 40,000  Level Washington Center
08:25PM 37.2139 -79.1256 219° Southwest 460 529 40,000 -660 Level Washington Center
08:26PM 37.1022 -79.2350 218° Southwest 460 529 38,800 -1,500 Descending Washington Center
08:27PM 37.0053 -79.3319 219° Southwest 460 529 37,100 -2,040 Descending Washington Center
08:28PM 36.9083 -79.4286 219° Southwest 455 524 34,700 -2,100 Descending Washington Center
08:29PM 36.8156 -79.5225 219° Southwest 449 517 33,000 -1,380 Descending Washington Center
08:30PM 36.7272 -79.6061 217° Southwest 449 517 32,000 -1,260 Descending Washington Center
08:31PM 36.6100 -79.7197 218° Southwest 430 495 30,300 -2,340 Descending Atlanta Center
08:32PM 36.5050 -79.8211 218° Southwest 430 495 26,900 -3,000 Descending Atlanta Center
08:33PM 36.4142 -79.9083 218° Southwest 430 495 24,300 -2,400 Descending Atlanta Center
08:34PM 36.3214 -79.9981 218° Southwest 430 495 22,100 -1,200 Descending Atlanta Center
08:35PM 36.2281 -80.0775 214° Southwest 424 488 21,900 -900 Descending Atlanta Center
08:36PM 36.1489 -80.1458 215° Southwest 409 471 20,400 -1,860 Descending Atlanta Center
08:37PM 36.0614 -80.2219 215° Southwest 399 459 18,200 -2,400 Descending Atlanta Center
08:38PM 35.9600 -80.3114 216° Southwest 377 434 15,500 -2,520 Descending Atlanta Center
08:39PM 35.9092 -80.3572 216° Southwest 373 429 14,000 -2,160 Descending Atlanta Center
08:39PM 35.8828 -80.3764 210° Southwest 388 447 13,500 -1,020 Descending Atlanta Center
08:39PM 35.8358 -80.4194 217° Southwest 345 397 13,100 -540 Descending Atlanta Center
08:40PM 35.8053 -80.4386 207° Southwest 355 409 13,000 -600 Descending Atlanta Center
08:40PM 35.7647 -80.4789 219° Southwest 291 335 12,500 -840 Descending Atlanta Center
08:41PM 35.7422 -80.4925 206° Southwest 326 375 12,200 -1,140 Descending Atlanta Center
08:41PM 35.7036 -80.5328 220° Southwest 289 333 11,500 -1,200 Descending Atlanta Center
08:42PM 35.6897 -80.5589 237° Southwest 292 336 11,000 -1,680 Descending Atlanta Center
08:42PM 35.6725 -80.6108 248° West 282 325 10,000 -1,620 Descending Atlanta Center
08:43PM 35.6525 -80.6472 236° Southwest 282 325 9,400 -1,260 Descending Atlanta Center
08:43PM 35.6353 -80.7017 249° West 278 320 8,600 -1,200 Descending Atlanta Center
08:44PM 35.6214 -80.7303 239° Southwest 282 325 8,200 -1,560 Descending Atlanta Center
08:44PM 35.6058 -80.7719 245° Southwest 249 287 7,200 -2,040 Descending Atlanta Center
08:45PM 35.5903 -80.8056 240° Southwest 261 300 6,200 -1,200 Descending Atlanta Center
08:45PM 35.5767 -80.8469 248° West 243 280 6,000 -240 Descending Atlanta Center
08:46PM 35.5608 -80.8833 242° Southwest 247 284 6,000 -420 Level Atlanta Center
08:46PM 35.5533 -80.9117 252° West 177 204 5,600 -900 Descending Atlanta Center
08:47PM 35.5414 -80.9378 241° Southwest 208 239 5,100 -1,140 Descending Atlanta Center
08:47PM 35.5189 -80.9539 210° Southwest 169 194 4,500 -1,020 Descending Atlanta Center
08:48PM 35.4983 -80.9650 204° Southwest 175 201 4,100 -540 Descending Atlanta Center
08:48PM 35.4756 -80.9758 201° Southwest 167 192 4,000 -120 Descending Atlanta Center
08:49PM 35.4256 -80.9728 177° South 163 188 4,000 -180 Level Atlanta Center
08:51PM 35.3794 -80.9694 177° South 151 174 3,600 -540 Descending Atlanta Center
08:52PM 35.3394 -80.9606 170° South 148 170 2,900 -660 Descending Atlanta Center
08:53PM 35.3039 -80.9467 162° South 146 168 2,300 -720 Descending Atlanta Center
08:54PM 35.2619 -80.9433 176° South 134 154 1,500 -840 Descending Atlanta Center
08:56PM 35.2137 -80.9491 173° South  Level Estimated
09:03PM 35.2137 -80.9491 173° South  Level Estimated